sensor_id;sensor_type;location;lat;lon;timestamp;pressure;altitude;pressure_sealevel;temperature;humidity
48041;BME280;33815;48.386;11.738;2023-01-28T00:00:30;96883.31;;;-2.68;100.00
48041;BME280;33815;48.386;11.738;2023-01-28T00:02:56;96913.03;;;-2.45;100.00
48041;BME280;33815;48.386;11.738;2023-01-28T00:05:21;96891.97;;;-2.50;100.00
48041;BME280;33815;48.386;11.738;2023-01-28T00:07:48;96882.38;;;-2.66;100.00
48041;BME280;33815;48.386;11.738;2023-01-28T00:10:14;96864.47;;;-2.86;100.00
48041;BME280;33815;48.386;11.738;2023-01-28T00:12:39;96908.41;;;-2.58;100.00
48041;BME280;33815;48.386;11.738;2023-01-28T00:15:05;96908.22;;;-2.75;100.00
48041;BME280;33815;48.386;11.738;2023-01-28T00:17:31;96915.66;;;-2.69;100.00
48041;BME280;33815;48.386;11.738;2023-01-28T00:19:56;96903.66;;;-2.67;100.00
48041;BME280;33815;48.386;11.738;2023-01-28T00:22:21;96905.59;;;-2.72;100.00
48041;BME280;33815;48.386;11.738;2023-01-28T00:24:46;96895.66;;;-2.80;100.00
48041;BME280;33815;48.386;11.738;2023-01-28T00:27:12;96890.75;;;-2.84;100.00
48041;BME280;33815;48.386;11.738;2023-01-28T00:29:37;96888.81;;;-2.78;100.00
48041;BME280;33815;48.386;11.738;2023-01-28T00:32:02;96879.75;;;-2.86;100.00
48041;BME280;33815;48.386;11.738;2023-01-28T00:34:28;96895.97;;;-2.87;100.00
48041;BME280;33815;48.386;11.738;2023-01-28T00:36:53;96891.75;;;-2.88;100.00
48041;BME280;33815;48.386;11.738;2023-01-28T00:39:24;96911.44;;;-2.70;100.00
48041;BME280;33815;48.386;11.738;2023-01-28T00:41:51;96911.78;;;-2.79;100.00
48041;BME280;33815;48.386;11.738;2023-01-28T00:44:17;96903.72;;;-2.90;100.00
48041;BME280;33815;48.386;11.738;2023-01-28T00:46:43;96905.41;;;-2.89;100.00
48041;BME280;33815;48.386;11.738;2023-01-28T00:49:08;96894.03;;;-3.03;100.00
48041;BME280;33815;48.386;11.738;2023-01-28T00:51:34;96900.53;;;-2.96;100.00
48041;BME280;33815;48.386;11.738;2023-01-28T00:53:59;96895.72;;;-3.03;100.00
48041;BME280;33815;48.386;11.738;2023-01-28T00:56:26;96902.31;;;-2.98;100.00
48041;BME280;33815;48.386;11.738;2023-01-28T00:58:51;96888.06;;;-3.03;100.00
48041;BME280;33815;48.386;11.738;2023-01-28T01:01:22;96891.69;;;-3.09;100.00
48041;BME280;33815;48.386;11.738;2023-01-28T01:03:49;96901.63;;;-3.01;100.00
48041;BME280;33815;48.386;11.738;2023-01-28T01:06:26;96878.88;;;-3.30;100.00
48041;BME280;33815;48.386;11.738;2023-01-28T01:08:52;96909.75;;;-2.91;100.00
48041;BME280;33815;48.386;11.738;2023-01-28T01:11:17;96917.00;;;-3.04;100.00
48041;BME280;33815;48.386;11.738;2023-01-28T01:13:43;96918.91;;;-3.10;100.00
48041;BME280;33815;48.386;11.738;2023-01-28T01:16:13;96924.84;;;-3.09;100.00
48041;BME280;33815;48.386;11.738;2023-01-28T01:18:39;96911.53;;;-3.17;100.00
48041;BME280;33815;48.386;11.738;2023-01-28T01:21:11;96903.13;;;-3.19;100.00
48041;BME280;33815;48.386;11.738;2023-01-28T01:23:37;96910.97;;;-3.24;100.00
48041;BME280;33815;48.386;11.738;2023-01-28T01:26:03;96913.53;;;-3.25;100.00
48041;BME280;33815;48.386;11.738;2023-01-28T01:28:29;96921.75;;;-3.17;100.00
48041;BME280;33815;48.386;11.738;2023-01-28T01:31:01;96905.81;;;-3.22;100.00
48041;BME280;33815;48.386;11.738;2023-01-28T01:33:28;96929.31;;;-3.14;100.00
48041;BME280;33815;48.386;11.738;2023-01-28T01:35:54;96922.97;;;-3.28;100.00
48041;BME280;33815;48.386;11.738;2023-01-28T01:38:19;96910.56;;;-3.37;100.00
48041;BME280;33815;48.386;11.738;2023-01-28T01:40:45;96919.13;;;-3.38;100.00
48041;BME280;33815;48.386;11.738;2023-01-28T01:43:20;96924.41;;;-3.44;100.00
48041;BME280;33815;48.386;11.738;2023-01-28T01:45:50;96919.25;;;-3.42;100.00
48041;BME280;33815;48.386;11.738;2023-01-28T01:48:20;96930.94;;;-3.37;100.00
48041;BME280;33815;48.386;11.738;2023-01-28T01:50:56;96909.38;;;-3.50;100.00
48041;BME280;33815;48.386;11.738;2023-01-28T01:53:24;96920.50;;;-3.53;100.00
48041;BME280;33815;48.386;11.738;2023-01-28T01:55:52;96938.03;;;-3.45;100.00
48041;BME280;33815;48.386;11.738;2023-01-28T01:58:22;96934.34;;;-3.36;100.00
48041;BME280;33815;48.386;11.738;2023-01-28T02:00:50;96945.66;;;-3.43;100.00
48041;BME280;33815;48.386;11.738;2023-01-28T02:03:18;96918.94;;;-3.57;100.00
48041;BME280;33815;48.386;11.738;2023-01-28T02:05:49;96941.44;;;-3.45;100.00
48041;BME280;33815;48.386;11.738;2023-01-28T02:08:14;96945.94;;;-3.28;100.00
48041;BME280;33815;48.386;11.738;2023-01-28T02:10:48;96922.88;;;-3.48;100.00
48041;BME280;33815;48.386;11.738;2023-01-28T02:13:15;96942.81;;;-3.36;100.00
48041;BME280;33815;48.386;11.738;2023-01-28T02:15:43;96933.69;;;-3.41;100.00
48041;BME280;33815;48.386;11.738;2023-01-28T02:18:10;96921.75;;;-3.41;100.00
48041;BME280;33815;48.386;11.738;2023-01-28T02:20:47;96950.47;;;-3.12;100.00
48041;BME280;33815;48.386;11.738;2023-01-28T02:31:53;96949.22;;;-3.02;100.00
48041;BME280;33815;48.386;11.738;2023-01-28T02:34:42;96958.84;;;-3.08;100.00
48041;BME280;33815;48.386;11.738;2023-01-28T02:37:14;96955.56;;;-3.12;100.00
48041;BME280;33815;48.386;11.738;2023-01-28T02:39:48;96965.81;;;-3.14;100.00
48041;BME280;33815;48.386;11.738;2023-01-28T02:42:21;96959.78;;;-3.11;100.00
48041;BME280;33815;48.386;11.738;2023-01-28T02:44:48;96959.78;;;-3.11;100.00
48041;BME280;33815;48.386;11.738;2023-01-28T02:47:14;96966.38;;;-3.05;100.00
48041;BME280;33815;48.386;11.738;2023-01-28T02:50:01;96960.28;;;-3.01;100.00
48041;BME280;33815;48.386;11.738;2023-01-28T02:52:53;96962.50;;;-2.94;100.00
48041;BME280;33815;48.386;11.738;2023-01-28T02:55:49;96970.91;;;-2.90;100.00
48041;BME280;33815;48.386;11.738;2023-01-28T02:58:25;96965.44;;;-3.03;100.00
48041;BME280;33815;48.386;11.738;2023-01-28T03:01:22;96966.69;;;-3.15;100.00
48041;BME280;33815;48.386;11.738;2023-01-28T03:04:00;96966.94;;;-3.21;100.00
48041;BME280;33815;48.386;11.738;2023-01-28T03:06:36;96973.59;;;-3.17;100.00
48041;BME280;33815;48.386;11.738;2023-01-28T03:09:06;96970.59;;;-3.28;100.00
48041;BME280;33815;48.386;11.738;2023-01-28T03:11:50;96962.66;;;-3.44;100.00
48041;BME280;33815;48.386;11.738;2023-01-28T03:14:37;96935.41;;;-3.66;100.00
48041;BME280;33815;48.386;11.738;2023-01-28T03:17:32;96982.91;;;-3.39;100.00
48041;BME280;33815;48.386;11.738;2023-01-28T03:20:19;96962.44;;;-3.62;100.00
48041;BME280;33815;48.386;11.738;2023-01-28T03:23:09;96978.75;;;-3.67;100.00
48041;BME280;33815;48.386;11.738;2023-01-28T03:25:57;96925.69;;;-4.05;100.00
48041;BME280;33815;48.386;11.738;2023-01-28T03:28:44;96974.91;;;-3.79;100.00
48041;BME280;33815;48.386;11.738;2023-01-28T03:31:29;96969.91;;;-3.82;100.00
48041;BME280;33815;48.386;11.738;2023-01-28T03:34:14;96971.38;;;-3.75;100.00
48041;BME280;33815;48.386;11.738;2023-01-28T03:36:58;96977.09;;;-3.68;100.00
48041;BME280;33815;48.386;11.738;2023-01-28T03:39:26;96975.53;;;-3.72;100.00
48041;BME280;33815;48.386;11.738;2023-01-28T03:41:56;96989.13;;;-3.73;100.00
48041;BME280;33815;48.386;11.738;2023-01-28T03:44:23;96967.31;;;-3.81;100.00
48041;BME280;33815;48.386;11.738;2023-01-28T03:47:08;96959.84;;;-3.85;100.00
48041;BME280;33815;48.386;11.738;2023-01-28T03:49:36;96974.53;;;-3.68;100.00
48041;BME280;33815;48.386;11.738;2023-01-28T03:52:01;96962.09;;;-3.78;100.00
48041;BME280;33815;48.386;11.738;2023-01-28T03:54:27;96984.63;;;-3.65;100.00
48041;BME280;33815;48.386;11.738;2023-01-28T03:56:52;96949.44;;;-3.79;100.00
48041;BME280;33815;48.386;11.738;2023-01-28T03:59:17;96983.50;;;-3.58;100.00
48041;BME280;33815;48.386;11.738;2023-01-28T04:01:42;96988.53;;;-3.55;100.00
48041;BME280;33815;48.386;11.738;2023-01-28T04:04:08;96989.06;;;-3.47;100.00
48041;BME280;33815;48.386;11.738;2023-01-28T04:06:48;96998.22;;;-3.41;100.00
48041;BME280;33815;48.386;11.738;2023-01-28T04:09:13;96964.13;;;-3.62;100.00
48041;BME280;33815;48.386;11.738;2023-01-28T04:11:39;96989.06;;;-3.47;100.00
48041;BME280;33815;48.386;11.738;2023-01-28T04:14:04;96974.88;;;-3.54;100.00
48041;BME280;33815;48.386;11.738;2023-01-28T04:16:29;96970.00;;;-3.60;100.00
48041;BME280;33815;48.386;11.738;2023-01-28T04:18:54;96987.38;;;-3.46;100.00
48041;BME280;33815;48.386;11.738;2023-01-28T04:21:22;96998.28;;;-3.42;100.00
48041;BME280;33815;48.386;11.738;2023-01-28T04:23:47;96979.22;;;-3.56;100.00
48041;BME280;33815;48.386;11.738;2023-01-28T04:26:12;96994.22;;;-3.48;100.00
48041;BME280;33815;48.386;11.738;2023-01-28T04:28:37;96998.31;;;-3.44;100.00
48041;BME280;33815;48.386;11.738;2023-01-28T04:31:03;97004.03;;;-3.37;100.00
48041;BME280;33815;48.386;11.738;2023-01-28T04:33:28;96987.69;;;-3.55;100.00
48041;BME280;33815;48.386;11.738;2023-01-28T04:35:53;97011.75;;;-3.39;100.00
48041;BME280;33815;48.386;11.738;2023-01-28T04:38:19;96989.81;;;-3.43;100.00
48041;BME280;33815;48.386;11.738;2023-01-28T04:40:48;96989.69;;;-3.40;100.00
48041;BME280;33815;48.386;11.738;2023-01-28T04:43:13;97000.75;;;-3.41;100.00
48041;BME280;33815;48.386;11.738;2023-01-28T04:45:38;96982.47;;;-3.52;100.00
48041;BME280;33815;48.386;11.738;2023-01-28T04:48:04;97015.00;;;-3.35;100.00
48041;BME280;33815;48.386;11.738;2023-01-28T04:50:29;97000.94;;;-3.46;100.00
48041;BME280;33815;48.386;11.738;2023-01-28T04:52:54;96973.44;;;-3.61;100.00
48041;BME280;33815;48.386;11.738;2023-01-28T04:55:20;97005.84;;;-3.41;100.00
48041;BME280;33815;48.386;11.738;2023-01-28T04:57:46;97030.97;;;-3.30;100.00
48041;BME280;33815;48.386;11.738;2023-01-28T05:00:12;97026.69;;;-3.28;100.00
48041;BME280;33815;48.386;11.738;2023-01-28T05:02:38;97007.34;;;-3.35;100.00
48041;BME280;33815;48.386;11.738;2023-01-28T05:05:03;97019.03;;;-3.28;100.00
48041;BME280;33815;48.386;11.738;2023-01-28T05:07:33;96989.97;;;-3.48;100.00
48041;BME280;33815;48.386;11.738;2023-01-28T05:09:58;97018.13;;;-3.27;100.00
48041;BME280;33815;48.386;11.738;2023-01-28T05:12:23;97026.56;;;-3.25;100.00
48041;BME280;33815;48.386;11.738;2023-01-28T05:14:48;97012.44;;;-3.34;100.00
48041;BME280;33815;48.386;11.738;2023-01-28T05:17:14;97004.88;;;-3.37;100.00
48041;BME280;33815;48.386;11.738;2023-01-28T05:19:39;97025.69;;;-3.24;100.00
48041;BME280;33815;48.386;11.738;2023-01-28T05:22:04;97032.28;;;-3.18;100.00
48041;BME280;33815;48.386;11.738;2023-01-28T05:24:30;97032.31;;;-3.20;100.00
48041;BME280;33815;48.386;11.738;2023-01-28T05:26:55;97022.09;;;-3.20;100.00
48041;BME280;33815;48.386;11.738;2023-01-28T05:29:20;97032.22;;;-3.17;100.00
48041;BME280;33815;48.386;11.738;2023-01-28T05:31:46;97042.25;;;-3.12;100.00
48041;BME280;33815;48.386;11.738;2023-01-28T05:34:12;97040.44;;;-3.08;100.00
48041;BME280;33815;48.386;11.738;2023-01-28T05:36:37;97036.38;;;-3.14;100.00
48041;BME280;33815;48.386;11.738;2023-01-28T05:39:02;97027.31;;;-3.23;100.00
48041;BME280;33815;48.386;11.738;2023-01-28T05:41:28;97044.97;;;-3.17;100.00
48041;BME280;33815;48.386;11.738;2023-01-28T05:43:53;97050.63;;;-3.08;100.00
48041;BME280;33815;48.386;11.738;2023-01-28T05:46:18;97061.34;;;-2.99;100.00
48041;BME280;33815;48.386;11.738;2023-01-28T05:48:43;97056.19;;;-2.97;100.00
48041;BME280;33815;48.386;11.738;2023-01-28T05:51:10;97033.91;;;-3.17;100.00
48041;BME280;33815;48.386;11.738;2023-01-28T05:53:35;97038.75;;;-3.10;100.00
48041;BME280;33815;48.386;11.738;2023-01-28T05:56:00;97038.59;;;-3.05;100.00
48041;BME280;33815;48.386;11.738;2023-01-28T05:58:26;97046.81;;;-2.97;100.00
48041;BME280;33815;48.386;11.738;2023-01-28T06:00:54;97051.78;;;-2.94;100.00
48041;BME280;33815;48.386;11.738;2023-01-28T06:03:20;97048.53;;;-2.97;100.00
48041;BME280;33815;48.386;11.738;2023-01-28T06:05:46;97012.81;;;-3.21;100.00
48041;BME280;33815;48.386;11.738;2023-01-28T06:08:12;97048.47;;;-2.96;100.00
48041;BME280;33815;48.386;11.738;2023-01-28T06:10:37;97015.81;;;-3.10;100.00
48041;BME280;33815;48.386;11.738;2023-01-28T06:13:02;97063.47;;;-2.88;100.00
48041;BME280;33815;48.386;11.738;2023-01-28T06:15:28;97053.47;;;-2.93;100.00
48041;BME280;33815;48.386;11.738;2023-01-28T06:17:53;97064.34;;;-2.87;100.00
48041;BME280;33815;48.386;11.738;2023-01-28T06:20:18;97062.03;;;-2.95;100.00
48041;BME280;33815;48.386;11.738;2023-01-28T06:22:43;97020.41;;;-3.19;100.00
48041;BME280;33815;48.386;11.738;2023-01-28T06:25:09;97062.78;;;-2.91;100.00
48041;BME280;33815;48.386;11.738;2023-01-28T06:27:34;97058.81;;;-3.00;100.00
48041;BME280;33815;48.386;11.738;2023-01-28T06:30:00;97048.03;;;-3.07;100.00
48041;BME280;33815;48.386;11.738;2023-01-28T06:32:26;97073.91;;;-2.94;100.00
48041;BME280;33815;48.386;11.738;2023-01-28T06:34:51;97061.34;;;-2.99;100.00
48041;BME280;33815;48.386;11.738;2023-01-28T06:37:16;97073.63;;;-2.86;100.00
48041;BME280;33815;48.386;11.738;2023-01-28T06:39:41;97067.09;;;-2.94;100.00
48041;BME280;33815;48.386;11.738;2023-01-28T06:42:07;97059.63;;;-2.98;100.00
48041;BME280;33815;48.386;11.738;2023-01-28T06:44:32;97093.16;;;-2.85;100.00
48041;BME280;33815;48.386;11.738;2023-01-28T06:46:57;97083.63;;;-2.80;100.00
48041;BME280;33815;48.386;11.738;2023-01-28T06:49:23;97102.03;;;-2.72;100.00
48041;BME280;33815;48.386;11.738;2023-01-28T06:51:48;97092.03;;;-2.78;100.00
48041;BME280;33815;48.386;11.738;2023-01-28T06:54:14;97091.34;;;-2.82;100.00
48041;BME280;33815;48.386;11.738;2023-01-28T06:56:39;97094.22;;;-2.67;100.00
48041;BME280;33815;48.386;11.738;2023-01-28T06:59:05;97102.69;;;-2.67;100.00
48041;BME280;33815;48.386;11.738;2023-01-28T07:01:30;97091.22;;;-2.79;100.00
48041;BME280;33815;48.386;11.738;2023-01-28T07:03:55;97070.44;;;-2.91;100.00
48041;BME280;33815;48.386;11.738;2023-01-28T07:06:21;97098.03;;;-2.79;100.00
48041;BME280;33815;48.386;11.738;2023-01-28T07:08:46;97097.94;;;-2.76;100.00
48041;BME280;33815;48.386;11.738;2023-01-28T07:11:11;97111.09;;;-2.63;100.00
48041;BME280;33815;48.386;11.738;2023-01-28T07:13:37;97123.53;;;-2.55;100.00
48041;BME280;33815;48.386;11.738;2023-01-28T07:16:02;97100.50;;;-2.76;100.00
48041;BME280;33815;48.386;11.738;2023-01-28T07:18:28;97123.09;;;-2.67;100.00
48041;BME280;33815;48.386;11.738;2023-01-28T07:20:53;97107.22;;;-2.75;100.00
48041;BME280;33815;48.386;11.738;2023-01-28T07:23:19;97122.22;;;-2.66;100.00
48041;BME280;33815;48.386;11.738;2023-01-28T07:25:44;97121.34;;;-2.65;100.00
48041;BME280;33815;48.386;11.738;2023-01-28T07:28:09;97119.25;;;-2.53;100.00
48041;BME280;33815;48.386;11.738;2023-01-28T07:30:36;97114.19;;;-2.55;100.00
48041;BME280;33815;48.386;11.738;2023-01-28T07:33:01;97133.44;;;-2.46;100.00
48041;BME280;33815;48.386;11.738;2023-01-28T07:35:26;97117.56;;;-2.54;100.00
48041;BME280;33815;48.386;11.738;2023-01-28T07:37:53;97131.56;;;-2.41;100.00
48041;BME280;33815;48.386;11.738;2023-01-28T07:40:20;97133.81;;;-2.33;100.00
48041;BME280;33815;48.386;11.738;2023-01-28T07:42:46;97130.03;;;-2.23;100.00
48041;BME280;33815;48.386;11.738;2023-01-28T07:45:11;97122.66;;;-2.31;100.00
48041;BME280;33815;48.386;11.738;2023-01-28T07:47:36;97134.28;;;-2.24;100.00
48041;BME280;33815;48.386;11.738;2023-01-28T07:50:02;97129.06;;;-2.20;100.00
48041;BME280;33815;48.386;11.738;2023-01-28T07:52:27;97147.59;;;-2.15;100.00
48041;BME280;33815;48.386;11.738;2023-01-28T07:54:53;97129.59;;;-2.12;100.00
48041;BME280;33815;48.386;11.738;2023-01-28T07:57:18;97135.25;;;-2.04;100.00
48041;BME280;33815;48.386;11.738;2023-01-28T07:59:48;97144.34;;;-1.97;100.00
48041;BME280;33815;48.386;11.738;2023-01-28T08:02:14;97147.22;;;-1.82;100.00
48041;BME280;33815;48.386;11.738;2023-01-28T08:04:39;97124.03;;;-1.78;100.00
48041;BME280;33815;48.386;11.738;2023-01-28T08:07:05;97124.56;;;-1.92;100.00
48041;BME280;33815;48.386;11.738;2023-01-28T08:09:30;97136.22;;;-1.84;100.00
48041;BME280;33815;48.386;11.738;2023-01-28T08:11:58;97130.34;;;-1.86;100.00
48041;BME280;33815;48.386;11.738;2023-01-28T08:14:23;97166.03;;;-1.63;100.00
48041;BME280;33815;48.386;11.738;2023-01-28T08:16:48;97155.81;;;-1.63;100.00
48041;BME280;33815;48.386;11.738;2023-01-28T08:19:14;97170.53;;;-1.47;100.00
48041;BME280;33815;48.386;11.738;2023-01-28T08:21:39;97171.63;;;-1.53;100.00
48041;BME280;33815;48.386;11.738;2023-01-28T08:24:05;97168.44;;;-1.58;100.00
48041;BME280;33815;48.386;11.738;2023-01-28T08:26:30;97165.31;;;-1.44;100.00
48041;BME280;33815;48.386;11.738;2023-01-28T08:28:55;97165.94;;;-1.39;100.00
48041;BME280;33815;48.386;11.738;2023-01-28T08:31:20;97168.41;;;-1.36;100.00
48041;BME280;33815;48.386;11.738;2023-01-28T08:33:46;97170.44;;;-1.44;100.00
48041;BME280;33815;48.386;11.738;2023-01-28T08:36:11;97167.16;;;-1.48;100.00
48041;BME280;33815;48.386;11.738;2023-01-28T08:38:36;97145.09;;;-1.50;100.00
48041;BME280;33815;48.386;11.738;2023-01-28T08:41:02;97172.06;;;-1.43;100.00
48041;BME280;33815;48.386;11.738;2023-01-28T08:43:27;97175.88;;;-1.31;100.00
48041;BME280;33815;48.386;11.738;2023-01-28T08:45:52;97180.25;;;-1.13;100.00
48041;BME280;33815;48.386;11.738;2023-01-28T08:48:18;97168.72;;;-1.23;100.00
48041;BME280;33815;48.386;11.738;2023-01-28T08:50:44;97183.69;;;-1.34;100.00
48041;BME280;33815;48.386;11.738;2023-01-28T08:53:15;97159.56;;;-1.49;100.00
48041;BME280;33815;48.386;11.738;2023-01-28T08:55:41;97187.41;;;-1.43;100.00
48041;BME280;33815;48.386;11.738;2023-01-28T08:58:10;97192.13;;;-1.32;100.00
48041;BME280;33815;48.386;11.738;2023-01-28T09:00:35;97196.34;;;-1.31;100.00
48041;BME280;33815;48.386;11.738;2023-01-28T09:03:01;97177.91;;;-1.40;100.00
48041;BME280;33815;48.386;11.738;2023-01-28T09:05:26;97186.31;;;-1.15;100.00
48041;BME280;33815;48.386;11.738;2023-01-28T09:07:52;97197.94;;;-1.08;100.00
48041;BME280;33815;48.386;11.738;2023-01-28T09:10:17;97192.59;;;-1.02;100.00
48041;BME280;33815;48.386;11.738;2023-01-28T09:12:44;97190.00;;;-0.81;100.00
48041;BME280;33815;48.386;11.738;2023-01-28T09:15:10;97187.91;;;-0.72;100.00
48041;BME280;33815;48.386;11.738;2023-01-28T09:17:35;97200.19;;;-0.59;100.00
48041;BME280;33815;48.386;11.738;2023-01-28T09:20:01;97207.78;;;-0.58;100.00
48041;BME280;33815;48.386;11.738;2023-01-28T09:22:26;97193.13;;;-0.54;100.00
48041;BME280;33815;48.386;11.738;2023-01-28T09:24:51;97189.91;;;-0.39;100.00
48041;BME280;33815;48.386;11.738;2023-01-28T09:27:16;97189.56;;;-0.31;100.00
48041;BME280;33815;48.386;11.738;2023-01-28T09:29:42;97185.84;;;-0.24;100.00
48041;BME280;33815;48.386;11.738;2023-01-28T09:32:07;97202.69;;;-0.18;100.00
48041;BME280;33815;48.386;11.738;2023-01-28T09:34:33;97202.59;;;-0.16;100.00
48041;BME280;33815;48.386;11.738;2023-01-28T09:36:58;97192.53;;;-0.40;100.00
48041;BME280;33815;48.386;11.738;2023-01-28T09:39:24;97180.66;;;-0.22;100.00
48041;BME280;33815;48.386;11.738;2023-01-28T09:47:34;97183.34;;;-0.06;100.00
48041;BME280;33815;48.386;11.738;2023-01-28T09:50:10;97199.50;;;-0.04;100.00
48041;BME280;33815;48.386;11.738;2023-01-28T09:52:38;97195.28;;;-0.05;100.00
48041;BME280;33815;48.386;11.738;2023-01-28T09:55:21;97210.50;;;-0.02;100.00
48041;BME280;33815;48.386;11.738;2023-01-28T09:57:52;97203.00;;;0.12;100.00
48041;BME280;33815;48.386;11.738;2023-01-28T10:00:27;97203.44;;;0.03;100.00
48041;BME280;33815;48.386;11.738;2023-01-28T10:03:03;97205.56;;;0.12;100.00
48041;BME280;33815;48.386;11.738;2023-01-28T10:05:59;97182.84;;;0.24;100.00
48041;BME280;33815;48.386;11.738;2023-01-28T10:12:44;97190.34;;;0.46;100.00
48041;BME280;33815;48.386;11.738;2023-01-28T10:15:23;97189.28;;;0.69;100.00
48041;BME280;33815;48.386;11.738;2023-01-28T10:18:00;97174.47;;;0.57;100.00
48041;BME280;33815;48.386;11.738;2023-01-28T10:20:29;97184.28;;;0.66;100.00
48041;BME280;33815;48.386;11.738;2023-01-28T10:23:09;97180.22;;;0.62;100.00
48041;BME280;33815;48.386;11.738;2023-01-28T10:25:39;97164.47;;;0.50;100.00
48041;BME280;33815;48.386;11.738;2023-01-28T10:28:17;97179.28;;;0.45;100.00
48041;BME280;33815;48.386;11.738;2023-01-28T10:30:44;97179.53;;;0.58;100.00
48041;BME280;33815;48.386;11.738;2023-01-28T10:35:45;97178.47;;;0.62;100.00
48041;BME280;33815;48.386;11.738;2023-01-28T10:38:19;97169.16;;;0.42;100.00
48041;BME280;33815;48.386;11.738;2023-01-28T10:40:45;97189.81;;;0.39;100.00
48041;BME280;33815;48.386;11.738;2023-01-28T10:43:18;97170.47;;;0.14;100.00
48041;BME280;33815;48.386;11.738;2023-01-28T10:46:00;97187.97;;;0.24;100.00
48041;BME280;33815;48.386;11.738;2023-01-28T10:48:33;97180.75;;;0.32;100.00
48041;BME280;33815;48.386;11.738;2023-01-28T10:51:04;97184.00;;;0.36;100.00
48041;BME280;33815;48.386;11.738;2023-01-28T10:53:44;97184.81;;;0.36;100.00
48041;BME280;33815;48.386;11.738;2023-01-28T10:56:25;97185.34;;;0.62;100.00
48041;BME280;33815;48.386;11.738;2023-01-28T10:59:02;97189.78;;;0.76;99.68
48041;BME280;33815;48.386;11.738;2023-01-28T11:01:38;97193.16;;;0.59;100.00
48041;BME280;33815;48.386;11.738;2023-01-28T11:04:04;97191.22;;;0.46;100.00
48041;BME280;33815;48.386;11.738;2023-01-28T11:06:30;97175.63;;;0.32;100.00
48041;BME280;33815;48.386;11.738;2023-01-28T11:08:55;97191.72;;;0.53;100.00
48041;BME280;33815;48.386;11.738;2023-01-28T11:11:26;97194.22;;;0.55;100.00
48041;BME280;33815;48.386;11.738;2023-01-28T11:13:52;97190.75;;;0.56;100.00
48041;BME280;33815;48.386;11.738;2023-01-28T11:16:19;97185.94;;;0.49;100.00
48041;BME280;33815;48.386;11.738;2023-01-28T11:18:53;97189.84;;;0.57;100.00
48041;BME280;33815;48.386;11.738;2023-01-28T11:21:27;97190.34;;;0.46;100.00
48041;BME280;33815;48.386;11.738;2023-01-28T11:23:57;97190.34;;;0.46;100.00
48041;BME280;33815;48.386;11.738;2023-01-28T11:26:26;97186.75;;;0.50;100.00
48041;BME280;33815;48.386;11.738;2023-01-28T11:28:54;97179.56;;;0.39;100.00
48041;BME280;33815;48.386;11.738;2023-01-28T11:31:20;97184.56;;;0.23;100.00
48041;BME280;33815;48.386;11.738;2023-01-28T11:33:51;97182.31;;;0.17;100.00
48041;BME280;33815;48.386;11.738;2023-01-28T11:36:20;97185.53;;;0.21;100.00
48041;BME280;33815;48.386;11.738;2023-01-28T11:38:54;97186.25;;;0.05;100.00
48041;BME280;33815;48.386;11.738;2023-01-28T11:41:36;97180.28;;;0.24;100.00
48041;BME280;33815;48.386;11.738;2023-01-28T11:44:18;97178.69;;;0.21;100.00
48041;BME280;33815;48.386;11.738;2023-01-28T11:47:06;97186.66;;;0.34;100.00
48041;BME280;33815;48.386;11.738;2023-01-28T11:49:58;97170.56;;;0.30;100.00
48041;BME280;33815;48.386;11.738;2023-01-28T11:58:41;97177.22;;;0.34;100.00
48041;BME280;33815;48.386;11.738;2023-01-28T12:01:16;97182.09;;;0.22;100.00
48041;BME280;33815;48.386;11.738;2023-01-28T12:04:15;97181.38;;;0.18;100.00
48041;BME280;33815;48.386;11.738;2023-01-28T12:09:26;97189.91;;;-0.01;100.00
48041;BME280;33815;48.386;11.738;2023-01-28T12:17:56;97178.75;;;0.20;100.00
48041;BME280;33815;48.386;11.738;2023-01-28T12:20:31;97187.63;;;0.12;100.00
48041;BME280;33815;48.386;11.738;2023-01-28T12:23:30;97184.72;;;0.20;100.00
48041;BME280;33815;48.386;11.738;2023-01-28T12:26:12;97184.50;;;0.25;100.00
48041;BME280;33815;48.386;11.738;2023-01-28T12:32:01;97182.91;;;0.22;100.00
48041;BME280;33815;48.386;11.738;2023-01-28T12:34:57;97180.16;;;0.08;100.00
48041;BME280;33815;48.386;11.738;2023-01-28T12:41:00;97188.72;;;0.26;100.00
48041;BME280;33815;48.386;11.738;2023-01-28T12:43:13;97179.09;;;0.31;100.00
48041;BME280;33815;48.386;11.738;2023-01-28T12:45:47;97179.88;;;0.14;100.00
48041;BME280;33815;48.386;11.738;2023-01-28T12:50:52;97173.88;;;-0.04;100.00
48041;BME280;33815;48.386;11.738;2023-01-28T12:53:35;97189.50;;;0.09;100.00
48041;BME280;33815;48.386;11.738;2023-01-28T12:56:26;97183.19;;;-0.03;100.00
48041;BME280;33815;48.386;11.738;2023-01-28T12:59:11;97178.94;;;-0.03;100.00
48041;BME280;33815;48.386;11.738;2023-01-28T13:01:43;97173.78;;;0.16;100.00
48041;BME280;33815;48.386;11.738;2023-01-28T13:04:17;97181.91;;;-0.12;100.00
48041;BME280;33815;48.386;11.738;2023-01-28T13:06:54;97181.69;;;-0.07;100.00
48041;BME280;33815;48.386;11.738;2023-01-28T13:09:24;97165.78;;;-0.14;100.00
48041;BME280;33815;48.386;11.738;2023-01-28T13:11:52;97176.78;;;-0.12;100.00
48041;BME280;33815;48.386;11.738;2023-01-28T13:14:23;97190.53;;;-0.14;100.00
48041;BME280;33815;48.386;11.738;2023-01-28T13:16:49;97182.78;;;-0.13;100.00
48041;BME280;33815;48.386;11.738;2023-01-28T13:21:43;97184.38;;;0.09;100.00
48041;BME280;33815;48.386;11.738;2023-01-28T13:26:55;97186.06;;;0.46;100.00
48041;BME280;33815;48.386;11.738;2023-01-28T13:31:51;97186.06;;;0.46;100.00
48041;BME280;33815;48.386;11.738;2023-01-28T13:34:37;97187.78;;;0.46;100.00
48041;BME280;33815;48.386;11.738;2023-01-28T13:37:43;97203.09;;;0.47;100.00
48041;BME280;33815;48.386;11.738;2023-01-28T13:42:37;97195.53;;;0.08;100.00
48041;BME280;33815;48.386;11.738;2023-01-28T13:47:43;97202.19;;;-0.07;100.00
48041;BME280;33815;48.386;11.738;2023-01-28T13:50:15;97205.16;;;0.03;100.00
48041;BME280;33815;48.386;11.738;2023-01-28T13:52:46;97183.63;;;-0.31;100.00